createdAt,value
2023-04-27T00:01:49.763Z,100568.28
2023-04-27T00:04:17.994Z,100570.06
2023-04-27T00:06:45.898Z,100568.19
2023-04-27T00:09:14.024Z,100568.78
2023-04-27T00:11:41.930Z,100568.50
2023-04-27T00:14:09.764Z,100566.09
2023-04-27T00:16:37.693Z,100566.41
2023-04-27T00:19:06.893Z,100572.84
2023-04-27T00:21:34.656Z,100569.44
2023-04-27T00:24:02.486Z,100565.81
2023-04-27T00:26:30.212Z,100565.94
2023-04-27T00:28:57.948Z,100566.19
2023-04-27T00:31:25.894Z,100562.72
2023-04-27T00:33:53.661Z,100564.69
2023-04-27T00:36:22.695Z,100559.84
2023-04-27T00:38:50.428Z,100560.53
2023-04-27T00:41:18.197Z,100564.88
2023-04-27T00:43:47.197Z,100565.56
2023-04-27T00:46:16.289Z,100562.16
2023-04-27T00:48:45.526Z,100567.53
2023-04-27T00:51:13.322Z,100573.28
2023-04-27T00:53:42.889Z,100567.41
2023-04-27T00:56:11.073Z,100567.53
2023-04-27T00:58:38.866Z,100571.09
2023-04-27T01:01:06.843Z,100578.28
2023-04-27T01:03:34.765Z,100574.94
2023-04-27T01:06:02.689Z,100575.03
2023-04-27T01:08:30.646Z,100574.19
2023-04-27T01:10:59.716Z,100568.06
2023-04-27T01:13:27.563Z,100569.09
2023-04-27T01:15:55.345Z,100570.31
2023-04-27T01:18:23.404Z,100565.19
2023-04-27T01:20:51.598Z,100570.69
2023-04-27T01:23:20.801Z,100576.13
2023-04-27T01:25:48.606Z,100579.06
2023-04-27T01:28:16.432Z,100576.28
2023-04-27T01:30:44.180Z,100578.06
2023-04-27T01:33:11.954Z,100577.81
2023-04-27T01:35:39.654Z,100576.94
2023-04-27T01:38:07.481Z,100576.78
2023-04-27T01:40:36.607Z,100581.22
2023-04-27T01:43:04.354Z,100577.81
2023-04-27T01:45:32.112Z,100571.00
2023-04-27T01:47:59.899Z,100567.50
2023-04-27T01:50:27.936Z,100565.97
2023-04-27T01:52:55.714Z,100575.63
2023-04-27T01:55:23.636Z,100573.06
2023-04-27T01:57:52.759Z,100574.91
2023-04-27T02:00:20.900Z,100572.41
2023-04-27T02:02:51.220Z,100577.06
2023-04-27T02:05:19.262Z,100583.53
2023-04-27T02:07:46.945Z,100578.50
2023-04-27T02:10:14.689Z,100583.03
2023-04-27T02:12:42.490Z,100582.19
2023-04-27T02:15:11.855Z,100575.84
2023-04-27T02:17:40.048Z,100576.72
2023-04-27T02:20:08.986Z,100581.81
2023-04-27T02:22:36.954Z,100585.22
2023-04-27T02:25:05.434Z,100596.84
2023-04-27T02:27:33.172Z,100590.94
2023-04-27T02:30:05.460Z,100588.31
2023-04-27T02:32:35.269Z,100587.53
2023-04-27T02:35:03.180Z,100597.19
2023-04-27T02:37:31.074Z,100598.03
2023-04-27T02:39:58.977Z,100599.47
2023-04-27T02:42:27.127Z,100604.41
2023-04-27T02:44:55.479Z,100598.44
2023-04-27T02:47:23.286Z,100601.97
2023-04-27T02:49:52.953Z,100601.00
2023-04-27T02:52:20.783Z,100604.50
2023-04-27T02:54:48.755Z,100602.91
2023-04-27T02:57:16.467Z,100604.09
2023-04-27T02:59:44.244Z,100598.03
2023-04-27T03:02:11.956Z,100601.78
2023-04-27T03:04:39.741Z,100599.34
2023-04-27T03:07:08.929Z,100599.41
2023-04-27T03:09:36.778Z,100591.41
2023-04-27T03:12:05.194Z,100597.47
2023-04-27T03:14:32.933Z,100603.41
2023-04-27T03:17:01.924Z,100602.41
2023-04-27T03:19:29.837Z,100598.63
2023-04-27T03:21:57.541Z,100607.25
2023-04-27T03:24:26.751Z,100605.47
2023-04-27T03:26:54.492Z,100607.25
2023-04-27T03:29:22.169Z,100601.84
2023-04-27T03:31:49.976Z,100594.97
2023-04-27T03:34:17.924Z,100591.72
2023-04-27T03:36:45.843Z,100593.44
2023-04-27T03:39:13.939Z,100596.16
2023-04-27T03:41:43.258Z,100592.75
2023-04-27T03:44:10.981Z,100591.72
2023-04-27T03:46:38.733Z,100587.13
2023-04-27T03:49:06.672Z,100589.31
2023-04-27T03:51:34.612Z,100585.63
2023-04-27T03:54:02.702Z,100590.59
2023-04-27T03:56:30.692Z,100589.50
2023-04-27T03:58:59.829Z,100587.44
2023-04-27T04:01:27.584Z,100595.28
2023-04-27T04:03:55.490Z,100597.84
2023-04-27T04:06:23.385Z,100602.94
2023-04-27T04:08:51.068Z,100600.22
2023-04-27T04:11:18.794Z,100596.72
2023-04-27T04:13:47.442Z,100593.22
2023-04-27T04:16:16.512Z,100593.13
2023-04-27T04:18:44.256Z,100593.88
2023-04-27T04:21:12.075Z,100598.16
2023-04-27T04:23:41.232Z,100596.38
2023-04-27T04:26:09.963Z,100602.22
2023-04-27T04:28:38.437Z,100607.34
2023-04-27T04:31:06.624Z,100604.69
2023-04-27T04:33:35.953Z,100610.75
2023-04-27T04:36:05.067Z,100613.41
2023-04-27T04:38:33.828Z,100615.56
2023-04-27T04:41:01.678Z,100616.50
2023-04-27T04:43:29.532Z,100610.16
2023-04-27T04:45:57.296Z,100605.63
2023-04-27T04:48:25.679Z,100601.31
2023-04-27T04:50:54.816Z,100595.06
2023-04-27T04:53:22.606Z,100597.53
2023-04-27T04:55:50.324Z,100598.22
2023-04-27T04:58:18.101Z,100602.38
2023-04-27T05:00:45.831Z,100610.09
2023-04-27T05:03:13.668Z,100616.06
2023-04-27T05:05:41.517Z,100613.06
2023-04-27T05:08:10.813Z,100615.16
2023-04-27T05:10:38.544Z,100605.91
2023-04-27T05:13:07.288Z,100605.66
2023-04-27T05:15:35.073Z,100620.94
2023-04-27T05:18:02.929Z,100620.69
2023-04-27T05:20:30.696Z,100620.03
2023-04-27T05:22:58.504Z,100630.16
2023-04-27T05:25:27.661Z,100635.16
2023-04-27T05:27:55.455Z,100628.81
2023-04-27T05:30:23.424Z,100633.75
2023-04-27T05:32:51.448Z,100628.16
2023-04-27T05:35:19.273Z,100635.63
2023-04-27T05:37:47.092Z,100627.47
2023-04-27T05:40:16.439Z,100634.19
2023-04-27T05:42:47.185Z,100638.16
2023-04-27T05:45:15.273Z,100642.25
2023-04-27T05:47:43.335Z,100645.53
2023-04-27T05:50:11.775Z,100645.25
2023-04-27T05:52:39.773Z,100645.78
2023-04-27T05:55:09.106Z,100645.69
2023-04-27T05:57:36.963Z,100652.19
2023-04-27T06:00:11.141Z,100654.00
2023-04-27T06:02:39.325Z,100648.31
2023-04-27T06:05:08.657Z,100654.19
2023-04-27T06:07:37.626Z,100652.19
2023-04-27T06:10:06.119Z,100664.50
2023-04-27T06:12:34.161Z,100657.94
2023-04-27T06:15:03.879Z,100659.13
2023-04-27T06:17:33.198Z,100663.09
2023-04-27T06:20:01.368Z,100661.72
2023-04-27T06:22:29.298Z,100666.53
2023-04-27T06:24:57.275Z,100671.44
2023-04-27T06:27:25.306Z,100673.69
2023-04-27T06:29:53.286Z,100677.84
2023-04-27T06:32:21.196Z,100668.63
2023-04-27T06:34:51.154Z,100685.78
2023-04-27T06:37:19.140Z,100673.75
2023-04-27T06:39:47.508Z,100683.69
2023-04-27T06:42:15.476Z,100674.22
2023-04-27T06:44:43.339Z,100687.09
2023-04-27T06:47:11.273Z,100684.09
2023-04-27T06:49:39.384Z,100686.47
2023-04-27T06:52:08.531Z,100688.69
2023-04-27T06:54:36.361Z,100686.44
2023-04-27T06:57:04.338Z,100677.84
2023-04-27T06:59:32.100Z,100682.94
2023-04-27T07:02:00.391Z,100686.66
2023-04-27T07:04:28.549Z,100692.63
2023-04-27T07:06:57.385Z,100683.16
2023-04-27T07:09:27.968Z,100689.41
2023-04-27T07:11:57.281Z,100691.53
2023-04-27T07:14:25.070Z,100692.69
2023-04-27T07:16:52.913Z,100696.72
2023-04-27T07:19:20.635Z,100698.19
2023-04-27T07:21:48.400Z,100695.63
2023-04-27T07:24:16.436Z,100700.78
2023-04-27T07:26:45.599Z,100696.47
2023-04-27T07:29:26.534Z,100699.97
2023-04-27T07:31:55.651Z,100702.06
2023-04-27T07:34:24.005Z,100701.75
2023-04-27T07:36:54.169Z,100700.72
2023-04-27T07:39:22.296Z,100695.91
2023-04-27T07:41:51.815Z,100686.97
2023-04-27T07:44:20.149Z,100685.31
2023-04-27T07:46:48.968Z,100689.00
2023-04-27T07:49:16.854Z,100687.31
2023-04-27T07:51:44.732Z,100676.06
2023-04-27T07:54:12.506Z,100674.88
2023-04-27T07:56:42.738Z,100675.06
2023-04-27T07:59:12.498Z,100670.47
2023-04-27T08:01:40.659Z,100670.78
2023-04-27T08:04:08.794Z,100670.63
2023-04-27T08:06:37.167Z,100668.41
2023-04-27T08:09:06.235Z,100668.50
2023-04-27T08:11:34.242Z,100677.53
2023-04-27T08:14:02.051Z,100665.50
2023-04-27T08:16:31.337Z,100676.13
2023-04-27T08:19:00.700Z,100681.28
2023-04-27T08:21:30.523Z,100673.88
2023-04-27T08:23:58.337Z,100673.19
2023-04-27T08:26:26.453Z,100689.59
2023-04-27T08:28:54.437Z,100679.53
2023-04-27T08:31:22.260Z,100686.78
2023-04-27T08:33:51.430Z,100685.28
2023-04-27T08:36:19.391Z,100684.75
2023-04-27T08:38:47.288Z,100680.72
2023-04-27T08:41:22.211Z,100673.81
2023-04-27T08:43:51.269Z,100674.09
2023-04-27T08:46:23.251Z,100677.50
2023-04-27T08:48:53.614Z,100676.53
2023-04-27T08:51:22.833Z,100674.00
2023-04-27T08:53:52.195Z,100676.94
2023-04-27T08:56:20.658Z,100676.66
2023-04-27T08:58:48.829Z,100679.47
2023-04-27T09:01:17.165Z,100683.25
2023-04-27T09:03:46.828Z,100675.50
2023-04-27T09:06:16.582Z,100680.66
2023-04-27T09:08:46.360Z,100681.34
2023-04-27T09:11:14.681Z,100677.22
2023-04-27T09:13:45.343Z,100676.03
2023-04-27T09:16:15.147Z,100672.03
2023-04-27T09:18:44.625Z,100664.53
2023-04-27T09:21:12.381Z,100668.19
2023-04-27T09:23:41.898Z,100664.22
2023-04-27T09:26:09.798Z,100662.16
2023-04-27T09:28:41.286Z,100651.06
2023-04-27T09:31:10.859Z,100656.25
2023-04-27T09:33:39.141Z,100649.06
2023-04-27T09:36:08.239Z,100649.88
2023-04-27T09:38:36.024Z,100652.84
2023-04-27T09:41:05.351Z,100651.78
2023-04-27T09:43:33.377Z,100656.94
2023-04-27T09:46:01.722Z,100650.19
2023-04-27T09:48:29.557Z,100644.94
2023-04-27T09:50:57.545Z,100648.19
2023-04-27T09:53:31.597Z,100643.34
2023-04-27T09:56:14.339Z,100633.84
2023-04-27T09:58:50.567Z,100635.88
2023-04-27T10:01:27.633Z,100636.19
2023-04-27T10:04:08.294Z,100630.66
2023-04-27T10:07:01.387Z,100636.25
2023-04-27T10:09:35.319Z,100635.41
2023-04-27T10:12:17.127Z,100632.53
2023-04-27T10:14:55.471Z,100632.84
2023-04-27T10:17:30.095Z,100625.28
2023-04-27T10:19:59.758Z,100632.69
2023-04-27T10:22:40.141Z,100638.06
2023-04-27T10:25:22.100Z,100628.47
2023-04-27T10:27:52.904Z,100632.19
2023-04-27T10:30:21.861Z,100629.47
2023-04-27T10:32:54.262Z,100631.66
2023-04-27T10:35:22.923Z,100623.56
2023-04-27T10:37:52.140Z,100625.88
2023-04-27T10:40:19.985Z,100624.06
2023-04-27T10:42:49.734Z,100623.56
2023-04-27T10:45:31.410Z,100630.44
2023-04-27T10:48:01.665Z,100628.91
2023-04-27T10:50:29.885Z,100613.06
2023-04-27T10:53:02.301Z,100623.56
2023-04-27T10:55:31.214Z,100624.25
2023-04-27T10:58:00.166Z,100612.38
2023-04-27T11:00:32.397Z,100602.72
2023-04-27T11:03:17.414Z,100602.41
2023-04-27T11:05:47.016Z,100609.59
2023-04-27T11:08:17.162Z,100600.56
2023-04-27T11:10:47.600Z,100597.75
2023-04-27T11:13:17.412Z,100597.19
2023-04-27T11:15:51.580Z,100591.72
2023-04-27T11:18:20.931Z,100582.19
2023-04-27T11:20:51.041Z,100587.47
2023-04-27T11:23:26.817Z,100587.91
2023-04-27T11:25:55.407Z,100589.44
2023-04-27T11:28:24.345Z,100596.44
2023-04-27T11:31:00.908Z,100588.22
2023-04-27T11:33:29.453Z,100578.72
2023-04-27T11:35:58.260Z,100574.63
2023-04-27T11:38:27.623Z,100579.88
2023-04-27T11:41:02.763Z,100569.50
2023-04-27T11:43:31.162Z,100570.38
2023-04-27T11:46:04.248Z,100571.38
2023-04-27T11:48:32.404Z,100555.69
2023-04-27T11:51:01.464Z,100556.91
2023-04-27T11:53:33.984Z,100556.59
2023-04-27T11:56:02.700Z,100558.00
2023-04-27T11:58:30.996Z,100556.66
2023-04-27T12:01:00.206Z,100550.25
2023-04-27T12:03:30.514Z,100543.00
2023-04-27T12:06:11.491Z,100538.47
2023-04-27T12:08:47.021Z,100543.44
2023-04-27T12:11:15.058Z,100535.75
2023-04-27T12:13:42.913Z,100534.63
2023-04-27T12:16:12.280Z,100536.41
2023-04-27T12:18:40.033Z,100536.31
2023-04-27T12:21:08.518Z,100530.44
2023-04-27T12:23:36.973Z,100529.47
2023-04-27T12:26:05.114Z,100525.16
2023-04-27T12:28:32.939Z,100530.03
2023-04-27T12:31:00.859Z,100519.03
2023-04-27T12:33:30.180Z,100522.06
2023-04-27T12:35:57.876Z,100515.69
2023-04-27T12:38:25.926Z,100530.53
2023-04-27T12:40:53.675Z,100524.03
2023-04-27T12:43:21.558Z,100523.59
2023-04-27T12:45:49.368Z,100518.00
2023-04-27T12:48:17.813Z,100516.34
2023-04-27T12:50:47.179Z,100519.53
2023-04-27T12:53:14.836Z,100516.13
2023-04-27T12:55:42.628Z,100513.47
2023-04-27T12:58:10.276Z,100501.91
2023-04-27T13:00:38.566Z,100504.06
2023-04-27T13:03:08.137Z,100508.41
2023-04-27T13:05:36.682Z,100503.31
2023-04-27T13:08:06.609Z,100506.66
2023-04-27T13:10:34.394Z,100503.88
2023-04-27T13:13:02.425Z,100501.81
2023-04-27T13:15:30.330Z,100503.00
2023-04-27T13:17:59.337Z,100495.69
2023-04-27T13:20:27.116Z,100501.59
2023-04-27T13:22:55.039Z,100493.28
2023-04-27T13:25:24.496Z,100490.66
2023-04-27T13:27:52.433Z,100491.97
2023-04-27T13:30:20.425Z,100490.50
2023-04-27T13:32:48.183Z,100483.94
2023-04-27T13:35:15.952Z,100481.97
2023-04-27T13:37:43.735Z,100487.09
2023-04-27T13:40:13.286Z,100484.78
2023-04-27T13:42:42.421Z,100484.69
2023-04-27T13:45:11.326Z,100489.91
2023-04-27T13:47:40.405Z,100496.81
2023-04-27T13:50:09.848Z,100490.38
2023-04-27T13:52:38.728Z,100493.94
2023-04-27T13:55:07.894Z,100490.94
2023-04-27T13:57:36.051Z,100490.28
2023-04-27T14:00:08.077Z,100487.59
2023-04-27T14:02:36.351Z,100491.41
2023-04-27T14:05:06.455Z,100487.47
2023-04-27T14:07:35.610Z,100490.19
2023-04-27T14:10:03.928Z,100484.25
2023-04-27T14:12:32.533Z,100482.31
2023-04-27T14:15:00.648Z,100483.34
2023-04-27T14:17:29.952Z,100485.94
2023-04-27T14:19:57.757Z,100484.47
2023-04-27T14:22:25.638Z,100493.06
2023-04-27T14:24:53.496Z,100491.50
2023-04-27T14:27:21.252Z,100492.63
2023-04-27T14:29:49.138Z,100487.50
2023-04-27T14:32:17.082Z,100486.38
2023-04-27T14:34:46.381Z,100487.69
2023-04-27T14:37:14.217Z,100487.66
2023-04-27T14:39:44.462Z,100481.84
2023-04-27T14:42:13.186Z,100481.94
2023-04-27T14:44:41.118Z,100483.50
2023-04-27T14:47:09.051Z,100478.19
2023-04-27T14:49:36.879Z,100478.09
2023-04-27T14:52:06.853Z,100484.75
2023-04-27T14:54:35.655Z,100477.03
2023-04-27T14:57:03.648Z,100475.88
2023-04-27T14:59:31.518Z,100471.53
2023-04-27T15:02:01.140Z,100467.91
2023-04-27T15:04:29.268Z,100468.69
2023-04-27T15:06:57.450Z,100473.53
2023-04-27T15:09:26.740Z,100464.88
2023-04-27T15:11:55.826Z,100468.94
2023-04-27T15:14:23.711Z,100468.78
2023-04-27T15:16:51.817Z,100456.00
2023-04-27T15:19:19.592Z,100455.41
2023-04-27T15:21:48.669Z,100448.78
2023-04-27T15:24:16.549Z,100447.97
2023-04-27T15:26:48.079Z,100432.28
2023-04-27T15:29:16.412Z,100430.72
2023-04-27T15:31:45.035Z,100425.78
2023-04-27T15:34:12.974Z,100417.41
2023-04-27T15:36:40.750Z,100426.88
2023-04-27T15:39:10.141Z,100428.25
2023-04-27T15:41:38.347Z,100431.78
2023-04-27T15:44:07.673Z,100427.56
2023-04-27T15:46:36.369Z,100432.25
2023-04-27T15:49:04.254Z,100417.38
2023-04-27T15:51:32.349Z,100409.63
2023-04-27T15:54:00.233Z,100417.13
2023-04-27T15:56:30.511Z,100405.00
2023-04-27T15:58:58.790Z,100406.06
2023-04-27T16:01:28.116Z,100394.06
2023-04-27T16:03:56.672Z,100399.34
2023-04-27T16:06:30.378Z,100388.41
2023-04-27T16:08:58.211Z,100394.50
2023-04-27T16:11:26.079Z,100381.88
2023-04-27T16:13:54.072Z,100389.47
2023-04-27T16:16:21.963Z,100391.53
2023-04-27T16:18:51.233Z,100390.03
2023-04-27T16:21:19.343Z,100388.66
2023-04-27T16:23:47.327Z,100388.69
2023-04-27T16:26:15.228Z,100390.41
2023-04-27T16:28:43.168Z,100387.38
2023-04-27T16:31:11.270Z,100380.34
2023-04-27T16:33:39.128Z,100382.72
2023-04-27T16:36:09.004Z,100379.34
2023-04-27T16:38:39.141Z,100388.63
2023-04-27T16:41:07.396Z,100381.03
2023-04-27T16:43:35.277Z,100375.63
2023-04-27T16:46:03.178Z,100380.50
2023-04-27T16:48:31.309Z,100385.56
2023-04-27T16:50:59.477Z,100379.84
2023-04-27T16:53:28.782Z,100377.00
2023-04-27T16:55:56.648Z,100370.09
2023-04-27T16:58:24.486Z,100371.25
2023-04-27T17:00:52.330Z,100377.16
2023-04-27T17:03:20.294Z,100381.72
2023-04-27T17:05:48.341Z,100374.47
2023-04-27T17:08:16.194Z,100386.06
2023-04-27T17:10:46.472Z,100378.00
2023-04-27T17:13:16.472Z,100383.38
2023-04-27T17:15:44.310Z,100380.03
2023-04-27T17:18:12.200Z,100378.69
2023-04-27T17:20:41.689Z,100372.78
2023-04-27T17:23:10.215Z,100364.03
2023-04-27T17:25:38.010Z,100362.38
2023-04-27T17:28:07.314Z,100363.88
2023-04-27T17:30:35.189Z,100356.81
2023-04-27T17:33:03.863Z,100355.94
2023-04-27T17:35:31.972Z,100360.66
2023-04-27T17:37:59.832Z,100361.00
2023-04-27T17:40:27.731Z,100365.72
2023-04-27T17:42:57.858Z,100370.59
2023-04-27T17:45:28.778Z,100370.25
2023-04-27T17:47:56.715Z,100372.25
2023-04-27T17:50:25.892Z,100373.59
2023-04-27T17:52:54.228Z,100367.03
2023-04-27T17:55:22.318Z,100365.66
2023-04-27T17:57:50.495Z,100364.66
2023-04-27T18:00:19.434Z,100369.69
2023-04-27T18:02:49.724Z,100369.63
2023-04-27T18:05:18.291Z,100363.94
2023-04-27T18:07:47.321Z,100359.00
2023-04-27T18:10:15.269Z,100356.00
2023-04-27T18:12:43.166Z,100358.31
2023-04-27T18:15:11.812Z,100350.75
2023-04-27T18:17:39.677Z,100352.91
2023-04-27T18:20:10.819Z,100339.09
2023-04-27T18:22:39.828Z,100345.66
2023-04-27T18:25:08.828Z,100345.13
2023-04-27T18:27:37.496Z,100349.16
2023-04-27T18:30:06.275Z,100352.19
2023-04-27T18:32:34.782Z,100350.97
2023-04-27T18:35:02.928Z,100350.44
2023-04-27T18:37:32.254Z,100348.25
2023-04-27T18:40:00.136Z,100349.56
2023-04-27T18:42:27.964Z,100355.41
2023-04-27T18:44:57.708Z,100359.41
2023-04-27T18:47:26.461Z,100349.31
2023-04-27T18:49:54.298Z,100343.75
2023-04-27T18:52:22.072Z,100350.28
2023-04-27T18:54:51.223Z,100345.38
2023-04-27T18:57:19.007Z,100353.91
2023-04-27T18:59:46.786Z,100346.34
2023-04-27T19:02:14.825Z,100348.75
2023-04-27T19:04:45.578Z,100349.09
2023-04-27T19:07:23.273Z,100341.66
2023-04-27T19:09:54.860Z,100343.13
2023-04-27T19:12:23.882Z,100332.88
2023-04-27T19:14:52.393Z,100331.50
2023-04-27T19:17:20.605Z,100342.53
2023-04-27T19:19:48.630Z,100341.16
2023-04-27T19:22:16.601Z,100341.47
2023-04-27T19:24:44.494Z,100339.94
2023-04-27T19:27:13.928Z,100343.78
2023-04-27T19:29:50.871Z,100338.72
2023-04-27T19:32:19.525Z,100338.19
2023-04-27T19:34:47.701Z,100340.19
2023-04-27T19:37:16.009Z,100342.34
2023-04-27T19:39:43.895Z,100338.09
2023-04-27T19:42:14.154Z,100340.28
2023-04-27T19:44:42.033Z,100341.72
2023-04-27T19:47:10.761Z,100344.19
2023-04-27T19:49:39.011Z,100341.41
2023-04-27T19:52:07.543Z,100337.81
2023-04-27T19:54:36.116Z,100343.22
2023-04-27T19:57:04.046Z,100345.22
2023-04-27T19:59:33.272Z,100341.75
2023-04-27T20:02:01.074Z,100335.44
2023-04-27T20:04:29.096Z,100334.34
2023-04-27T20:06:57.013Z,100333.78
2023-04-27T20:09:24.778Z,100332.41
2023-04-27T20:11:52.624Z,100335.69
2023-04-27T20:14:20.525Z,100344.31
2023-04-27T20:16:49.726Z,100344.75
2023-04-27T20:19:19.351Z,100340.53
2023-04-27T20:21:47.182Z,100333.63
2023-04-27T20:24:15.114Z,100336.75
2023-04-27T20:26:43.074Z,100341.72
2023-04-27T20:29:10.854Z,100349.88
2023-04-27T20:31:38.599Z,100340.63
2023-04-27T20:34:07.795Z,100350.78
2023-04-27T20:36:35.573Z,100343.75
2023-04-27T20:39:05.575Z,100332.78
2023-04-27T20:41:34.390Z,100332.22
2023-04-27T20:44:02.720Z,100321.50
2023-04-27T20:46:30.624Z,100321.00
2023-04-27T20:48:58.354Z,100325.78
2023-04-27T20:51:27.869Z,100322.41
2023-04-27T20:53:55.933Z,100332.94
2023-04-27T20:56:23.732Z,100321.25
2023-04-27T20:58:51.529Z,100321.13
2023-04-27T21:01:19.715Z,100322.22
2023-04-27T21:03:47.663Z,100314.38
2023-04-27T21:06:15.699Z,100319.88
2023-04-27T21:08:44.863Z,100314.78
2023-04-27T21:11:12.834Z,100312.69
2023-04-27T21:13:40.571Z,100299.75
2023-04-27T21:16:08.300Z,100306.25
2023-04-27T21:18:36.572Z,100297.53
2023-04-27T21:21:04.586Z,100297.78
2023-04-27T21:23:35.241Z,100300.59
2023-04-27T21:26:04.362Z,100297.41
2023-04-27T21:28:32.568Z,100296.84
2023-04-27T21:31:00.375Z,100298.81
2023-04-27T21:33:28.399Z,100301.03
2023-04-27T21:35:56.144Z,100305.66
2023-04-27T21:38:23.943Z,100298.78
2023-04-27T21:40:51.786Z,100291.91
2023-04-27T21:43:21.006Z,100287.53
2023-04-27T21:45:49.091Z,100280.78
2023-04-27T21:48:16.842Z,100277.53
2023-04-27T21:50:45.188Z,100276.69
2023-04-27T21:53:12.920Z,100273.47
2023-04-27T21:55:40.736Z,100273.47
2023-04-27T21:58:08.555Z,100270.91
2023-04-27T22:00:37.804Z,100268.41
2023-04-27T22:03:05.746Z,100275.44
2023-04-27T22:05:37.027Z,100278.41
2023-04-27T22:08:05.281Z,100285.56
2023-04-27T22:10:34.263Z,100278.41
2023-04-27T22:13:08.176Z,100282.88
2023-04-27T22:15:44.275Z,100275.56
2023-04-27T22:18:12.189Z,100276.84
2023-04-27T22:20:40.345Z,100274.31
2023-04-27T22:23:09.270Z,100273.63
2023-04-27T22:25:37.158Z,100275.28
2023-04-27T22:28:05.040Z,100272.63
2023-04-27T22:30:32.798Z,100269.69
2023-04-27T22:33:02.962Z,100262.50
2023-04-27T22:35:31.024Z,100260.97
2023-04-27T22:37:59.997Z,100260.53
2023-04-27T22:40:27.832Z,100269.25
2023-04-27T22:42:56.164Z,100271.91
2023-04-27T22:45:24.719Z,100273.75
2023-04-27T22:47:52.729Z,100262.06
2023-04-27T22:50:22.035Z,100265.72
2023-04-27T22:52:50.113Z,100258.41
2023-04-27T22:55:17.873Z,100253.63
2023-04-27T22:57:45.683Z,100246.72
2023-04-27T23:00:14.165Z,100246.88
2023-04-27T23:02:42.705Z,100245.19
2023-04-27T23:05:12.413Z,100248.00
2023-04-27T23:07:42.924Z,100235.50
2023-04-27T23:10:11.358Z,100236.19
2023-04-27T23:12:39.114Z,100240.53
2023-04-27T23:15:08.197Z,100244.06
2023-04-27T23:17:36.023Z,100249.13
2023-04-27T23:20:11.212Z,100245.47
2023-04-27T23:22:46.523Z,100240.41
2023-04-27T23:25:14.436Z,100241.38
2023-04-27T23:27:42.176Z,100238.88
2023-04-27T23:30:11.138Z,100229.84
2023-04-27T23:32:39.084Z,100243.34
2023-04-27T23:35:07.527Z,100250.66
2023-04-27T23:37:35.285Z,100253.34
2023-04-27T23:40:06.263Z,100257.00
2023-04-27T23:42:34.177Z,100267.13
2023-04-27T23:45:02.353Z,100256.56
2023-04-27T23:47:30.516Z,100254.78
2023-04-27T23:49:58.937Z,100238.88
2023-04-27T23:52:26.804Z,100227.75
2023-04-27T23:54:54.522Z,100223.81
2023-04-27T23:57:23.577Z,100209.34
2023-04-27T23:59:51.343Z,100215.38
